New Bern, NC (28564)

4:45 PM EDT on August 28, 2016 (GMT -0400)
Craven County EOC | | Change Station

Elev 20 ft 35.11 °N, 77.04 °W | Updated 1 minute ago

Light Rain
Light Rain Mist
76.8 °F
Feels Like 78 °F
N
0.0
Wind Variable Wind from NNE

Today
High -- | Low -- °F
--% Chance of Precip.
Yesterday
High -- | Low -- °F
Precip. -- in
Pressure 30.12 in
Visibility 2.5 miles
Clouds Few 800 ft
Scattered Clouds 1400 ft
Mostly Cloudy 2000 ft
Heat Index 78 °F
Dew Point 73 °F
Humidity 87%
Rainfall 0.58 in
Snow Depth Not available.
6:38 AM 7:39 PM
Waning Crescent, 13% visible
SPECI KEWN 282040Z 34003KT 2 1/2SM -RA BR FEW008 SCT014 BKN020 26/23 A3012 RMK AO2 LTG DSNT N AND NE RAE19B39 P0008 T02560233
Pressure 30.12 in
Visibility 2.5 miles
Clouds Few 800 ft
Scattered Clouds 1400 ft
Mostly Cloudy 2000 ft
Heat Index 78 °F
Dew Point 73 °F
Humidity 87%
Rainfall 0.58 in
Snow Depth Not available.
6:38 AM 7:39 PM
Waning Crescent, 13% visible
SPECI KEWN 282040Z 34003KT 2 1/2SM -RA BR FEW008 SCT014 BKN020 26/23 A3012 RMK AO2 LTG DSNT N AND NE RAE19B39 P0008 T02560233

10-Day Weather Forecast

Almanac

Astronomy

Aug. 28, 2016 Rise Set
Actual Time
Civil Twilight
Nautical Twilight
Astronomical Twilight
Moon
Length of Visible Light
Length of Day
Tomorrow will be .
, % of the Moon is Illuminated

Today's Extremes

State Highs State Lows

Community

WunderPhotos

Upload Photos

1,935,689 photos uploaded!

WunderBlog® & News

Nearby

Air Quality

  Air Quality AQ Index Pollutant
Not available.

Snow Depth

Station Depth Elevation

Earthquake Activity

City Distance Mag. Time & Date
Minimum magnitude displayed is 2.5.

Coastal Water Temperatures

Place Temperature

Stations

Nearby Weather Stations

Station Location Temp. Windchill Dew Point Humidity Wind Precip. Elev Updated Type
                   

Watches & Warnings

There are currently no watches in effect.